Time;durP1;ratioP1;P1;durP2;ratioP2;P2;SDS_P1;SDS_P2;PMS_P1;PMS_P2;Temp;Humidity;BMP_temperature;BMP_pressure;BME280_temperature;BME280_humidity;BME280_pressure;Samples;Min_cycle;Max_cycle;Signal;HPM_P1;HPM_P2
2020/12/21 00:01:30;;;;;;;34.90;17.48;;;12.50;71.50;;;;;;6251486;28;20366;-71
2020/12/21 00:04:31;;;;;;;39.50;18.05;;;12.50;71.50;;;;;;6251001;28;20048;-71
2020/12/21 00:07:32;;;;;;;38.05;18.67;;;12.40;71.60;;;;;;6236090;28;20035;-71
2020/12/21 00:10:33;;;;;;;39.35;17.42;;;12.40;71.50;;;;;;6254191;28;20029;-71
2020/12/21 00:13:42;;;;;;;48.70;19.02;;;12.40;71.60;;;;;;6244215;28;20087;-70
2020/12/21 00:16:45;;;;;;;42.42;17.58;;;12.30;71.60;;;;;;6248461;28;20037;-70
2020/12/21 00:19:46;;;;;;;35.92;16.70;;;12.30;71.70;;;;;;6242618;28;20041;-71
2020/12/21 00:22:47;;;;;;;36.58;16.95;;;12.20;71.70;;;;;;6251167;28;20103;-71
2020/12/21 00:25:48;;;;;;;36.97;17.58;;;12.20;71.90;;;;;;6255500;28;20059;-71
2020/12/21 00:28:49;;;;;;;41.25;18.40;;;12.10;72.10;;;;;;6252666;28;20128;-71
2020/12/21 00:31:50;;;;;;;33.58;16.05;;;12.10;72.10;;;;;;6253855;28;20055;-70
2020/12/21 00:34:51;;;;;;;37.30;17.92;;;12.10;72.20;;;;;;6251724;28;20034;-70
2020/12/21 00:37:52;;;;;;;41.90;17.45;;;12.20;72.30;;;;;;6250623;28;20422;-70
2020/12/21 00:40:53;;;;;;;41.58;16.88;;;12.20;72.20;;;;;;6234865;28;20129;-70
2020/12/21 00:43:53;;;;;;;33.25;16.83;;;12.20;72.10;;;;;;6234775;28;20060;-70
2020/12/21 00:46:54;;;;;;;38.00;17.80;;;12.20;72.10;;;;;;6249856;28;20483;-70
2020/12/21 00:49:55;;;;;;;38.20;17.33;;;12.20;72.20;;;;;;6241960;28;20072;-71
2020/12/21 00:52:56;;;;;;;41.40;18.25;;;12.10;72.00;;;;;;6247336;28;20037;-72
2020/12/21 00:56:02;;;;;;;37.08;16.77;;;12.10;72.10;;;;;;6232942;28;20132;-72
2020/12/21 00:59:03;;;;;;;36.47;17.48;;;12.10;72.20;;;;;;6271375;28;20040;-70
2020/12/21 01:02:06;;;;;;;52.53;19.30;;;12.00;72.20;;;;;;6258680;28;20041;-70
2020/12/21 01:05:06;;;;;;;40.05;17.67;;;12.00;72.30;;;;;;6255197;28;20048;-72
2020/12/21 01:08:07;;;;;;;41.80;17.65;;;12.00;72.40;;;;;;6238824;28;20037;-70
2020/12/21 01:11:10;;;;;;;44.80;19.23;;;12.00;72.40;;;;;;6231076;28;20037;-70
2020/12/21 01:14:12;;;;;;;44.65;17.92;;;12.00;72.50;;;;;;6234406;28;20136;-70
2020/12/21 01:17:13;;;;;;;45.58;18.50;;;12.00;72.60;;;;;;6230849;28;20907;-70
2020/12/21 01:20:14;;;;;;;50.10;18.50;;;12.00;72.50;;;;;;6232871;28;20029;-70
2020/12/21 01:23:15;;;;;;;39.53;15.57;;;12.00;72.50;;;;;;6227044;28;20026;-70
2020/12/21 01:26:17;;;;;;;48.40;17.50;;;12.10;72.50;;;;;;6215022;28;20038;-70
2020/12/21 01:29:17;;;;;;;50.40;18.83;;;12.10;72.30;;;;;;6230608;28;20041;-70
2020/12/21 01:32:19;;;;;;;45.67;18.27;;;12.10;72.40;;;;;;6228701;28;20053;-71
2020/12/21 01:35:20;;;;;;;52.35;17.73;;;12.10;72.20;;;;;;6227876;28;20036;-70
2020/12/21 01:38:22;;;;;;;52.90;18.58;;;12.20;72.20;;;;;;6227219;28;20041;-70
2020/12/21 01:41:22;;;;;;;42.00;19.27;;;12.20;72.20;;;;;;6246984;28;20484;-70
2020/12/21 01:44:24;;;;;;;44.55;16.98;;;12.20;72.10;;;;;;6259856;28;20037;-70
2020/12/21 01:47:25;;;;;;;42.35;17.75;;;12.30;72.00;;;;;;6256039;28;20033;-71
2020/12/21 01:50:26;;;;;;;44.95;16.75;;;12.40;72.00;;;;;;6252091;28;20040;-71
2020/12/21 01:53:27;;;;;;;47.60;17.65;;;12.40;71.80;;;;;;6253275;28;20357;-71
2020/12/21 01:56:29;;;;;;;40.72;16.88;;;12.40;71.70;;;;;;6257905;28;20343;-71
2020/12/21 01:59:30;;;;;;;43.60;17.02;;;12.40;71.50;;;;;;6256132;28;20034;-70
2020/12/21 02:02:35;;;;;;;35.53;15.82;;;12.40;71.40;;;;;;6262005;28;20108;-71
2020/12/21 02:05:37;;;;;;;43.60;17.50;;;12.40;71.50;;;;;;6216404;28;20049;-70
2020/12/21 02:08:38;;;;;;;42.00;17.85;;;12.50;71.50;;;;;;6238644;28;20045;-70
2020/12/21 02:11:43;;;;;;;42.25;17.52;;;12.50;71.40;;;;;;6257070;28;20029;-70
2020/12/21 02:14:43;;;;;;;40.42;17.75;;;12.50;71.40;;;;;;6260705;28;20021;-70
2020/12/21 02:17:44;;;;;;;37.13;16.33;;;12.50;71.30;;;;;;6257800;28;20116;-70
2020/12/21 02:20:45;;;;;;;37.35;16.42;;;12.60;71.30;;;;;;6251226;28;20366;-71
2020/12/21 02:23:46;;;;;;;45.08;17.00;;;12.50;71.10;;;;;;6233207;28;20404;-72
2020/12/21 02:26:47;;;;;;;39.70;17.20;;;12.60;71.20;;;;;;6230414;28;20116;-69
2020/12/21 02:29:48;;;;;;;39.55;17.85;;;12.60;71.20;;;;;;6233613;28;20059;-72
2020/12/21 02:32:49;;;;;;;42.58;17.83;;;12.60;71.00;;;;;;6229858;28;20045;-70
2020/12/21 02:35:49;;;;;;;47.17;18.10;;;12.60;71.10;;;;;;6239031;28;20042;-71
2020/12/21 02:38:51;;;;;;;49.72;18.63;;;12.60;71.10;;;;;;6243390;28;20037;-71
2020/12/21 02:41:52;;;;;;;42.28;17.85;;;12.60;71.00;;;;;;6230949;28;20041;-70
2020/12/21 02:44:53;;;;;;;43.05;18.00;;;12.60;71.00;;;;;;6232134;28;20034;-70
2020/12/21 02:47:54;;;;;;;50.42;18.63;;;12.60;71.10;;;;;;6219700;28;20120;-71
2020/12/21 02:50:55;;;;;;;49.58;19.02;;;12.50;71.10;;;;;;6230506;28;20040;-71
2020/12/21 02:53:56;;;;;;;46.80;16.20;;;12.50;71.20;;;;;;6230541;28;20037;-70
2020/12/21 02:56:57;;;;;;;36.35;15.80;;;12.50;71.30;;;;;;6258747;28;20029;-71
2020/12/21 02:59:58;;;;;;;50.72;18.40;;;12.60;71.30;;;;;;6256852;28;20498;-71
2020/12/21 03:02:59;;;;;;;38.53;16.02;;;12.60;71.20;;;;;;6262877;28;20037;-71
2020/12/21 03:05:59;;;;;;;38.13;17.02;;;12.60;71.10;;;;;;6258510;28;20047;-71
2020/12/21 03:09:01;;;;;;;40.90;16.80;;;12.60;71.00;;;;;;6256934;28;20389;-71
2020/12/21 03:12:02;;;;;;;35.22;16.15;;;12.60;71.10;;;;;;6257093;28;20033;-71
2020/12/21 03:15:04;;;;;;;42.40;16.63;;;12.50;71.20;;;;;;6253968;28;20052;-70
2020/12/21 03:18:05;;;;;;;38.10;15.45;;;12.60;71.10;;;;;;6255801;28;20037;-71
2020/12/21 03:21:06;;;;;;;35.75;15.02;;;12.60;71.10;;;;;;6257868;28;20044;-70
2020/12/21 03:24:07;;;;;;;38.30;16.15;;;12.50;71.00;;;;;;6254402;28;20091;-71
2020/12/21 03:27:08;;;;;;;41.78;16.60;;;12.50;71.10;;;;;;6256228;28;20553;-70
2020/12/21 03:30:10;;;;;;;39.88;16.65;;;12.40;71.10;;;;;;6253328;28;20041;-70
2020/12/21 03:37:34;;;;;;;40.00;15.48;;;12.30;71.50;;;;;;6254541;28;20479;-71
2020/12/21 03:40:35;;;;;;;39.47;15.40;;;12.30;71.50;;;;;;6234985;28;20037;-70
2020/12/21 03:43:36;;;;;;;47.22;16.38;;;12.20;71.50;;;;;;6230692;28;20041;-69
2020/12/21 03:46:37;;;;;;;42.35;16.35;;;12.20;71.60;;;;;;6231296;28;20498;-70
2020/12/21 03:49:38;;;;;;;32.38;14.18;;;12.10;71.70;;;;;;6217207;28;20065;-72
2020/12/21 03:52:39;;;;;;;39.45;16.15;;;12.10;71.80;;;;;;6212498;28;20088;-71
2020/12/21 03:55:40;;;;;;;43.45;16.63;;;12.10;71.90;;;;;;6228480;28;20033;-70
2020/12/21 03:58:41;;;;;;;41.53;15.90;;;12.00;71.90;;;;;;6231882;28;20029;-70
2020/12/21 04:01:43;;;;;;;43.63;16.95;;;12.00;71.90;;;;;;6253324;28;20042;-70
2020/12/21 04:04:44;;;;;;;41.45;16.02;;;11.90;71.90;;;;;;6248774;28;20033;-70
2020/12/21 04:07:45;;;;;;;41.97;16.60;;;11.90;72.00;;;;;;6254190;28;20044;-70
2020/12/21 04:10:46;;;;;;;37.65;15.13;;;11.90;72.10;;;;;;6254219;28;20045;-70
2020/12/21 04:13:47;;;;;;;40.65;16.70;;;11.80;72.10;;;;;;6253115;28;20052;-70
2020/12/21 04:16:48;;;;;;;38.33;15.80;;;11.90;72.10;;;;;;6250535;28;20037;-70
2020/12/21 04:19:49;;;;;;;38.08;15.48;;;11.90;72.20;;;;;;6252997;28;20045;-70
2020/12/21 04:22:50;;;;;;;36.47;15.07;;;11.90;72.00;;;;;;6256630;28;20037;-70
2020/12/21 04:25:50;;;;;;;29.42;13.70;;;11.90;72.10;;;;;;6256355;28;20060;-70
2020/12/21 04:28:51;;;;;;;45.05;16.35;;;11.80;72.00;;;;;;6249254;28;20164;-70
2020/12/21 04:31:54;;;;;;;42.63;16.30;;;11.80;72.90;;;;;;6247218;28;20056;-71
2020/12/21 04:34:55;;;;;;;36.00;14.70;;;11.80;72.30;;;;;;6236266;28;20029;-70
2020/12/21 04:37:55;;;;;;;38.13;15.27;;;11.80;72.40;;;;;;6254275;28;20459;-71
2020/12/21 04:40:58;;;;;;;38.88;16.42;;;11.70;72.30;;;;;;6234182;28;20473;-71
2020/12/21 04:43:59;;;;;;;36.25;15.60;;;11.70;72.50;;;;;;6242423;28;20037;-70
2020/12/21 04:47:01;;;;;;;45.05;16.45;;;11.70;72.50;;;;;;6248704;28;20105;-71
2020/12/21 04:50:02;;;;;;;38.20;16.50;;;11.60;72.50;;;;;;6250798;28;20488;-71
2020/12/21 04:53:07;;;;;;;39.25;15.30;;;11.50;72.80;;;;;;6258423;28;20408;-70
2020/12/21 04:56:08;;;;;;;34.17;15.13;;;11.60;73.00;;;;;;6262884;28;20029;-70
2020/12/21 04:59:13;;;;;;;33.92;15.35;;;11.50;72.90;;;;;;6257538;28;20033;-70
2020/12/21 05:02:14;;;;;;;32.92;15.07;;;11.50;73.00;;;;;;6244108;28;20049;-71
2020/12/21 05:05:40;;;;;;;29.40;13.27;;;11.50;73.00;;;;;;6259578;28;20060;-71
2020/12/21 05:08:41;;;;;;;30.08;13.73;;;11.40;73.20;;;;;;6206700;28;20030;-71
2020/12/21 05:11:53;;;;;;;34.13;15.05;;;11.40;73.20;;;;;;6215753;28;20110;-70
2020/12/21 05:14:54;;;;;;;35.78;14.02;;;11.40;73.40;;;;;;6199266;28;20064;-71
2020/12/21 05:18:07;;;;;;;30.02;13.60;;;11.30;73.50;;;;;;6221065;28;20058;-71
2020/12/21 05:21:10;;;;;;;31.15;13.63;;;11.30;73.50;;;;;;6234961;28;20491;-71
2020/12/21 05:24:21;;;;;;;34.03;14.23;;;11.30;73.50;;;;;;6232938;28;20041;-71
2020/12/21 05:27:22;;;;;;;32.20;12.60;;;11.30;73.50;;;;;;6235910;28;20038;-71
2020/12/21 05:30:23;;;;;;;35.15;14.13;;;11.30;73.40;;;;;;6207133;28;20037;-71
2020/12/21 05:33:25;;;;;;;30.15;13.68;;;11.30;73.40;;;;;;6220415;28;20073;-71
2020/12/21 05:36:26;;;;;;;34.00;12.73;;;11.30;73.40;;;;;;6238332;28;20118;-71
2020/12/21 05:39:27;;;;;;;32.75;11.73;;;11.30;73.40;;;;;;6200705;28;20021;-71
2020/12/21 05:42:28;;;;;;;27.90;10.60;;;11.30;73.40;;;;;;6220453;28;20219;-71
2020/12/21 05:45:29;;;;;;;23.45;10.75;;;11.30;73.30;;;;;;6233855;28;20053;-71
2020/12/21 05:48:35;;;;;;;21.75;9.98;;;11.20;73.90;;;;;;6252170;28;20041;-71
2020/12/21 05:51:39;;;;;;;23.90;10.93;;;11.20;73.20;;;;;;6272256;28;20356;-71
2020/12/21 05:54:43;;;;;;;31.10;12.27;;;11.10;73.10;;;;;;6260496;28;20033;-71
2020/12/21 05:57:47;;;;;;;30.17;11.63;;;11.00;73.20;;;;;;6249949;28;20025;-71
2020/12/21 06:00:48;;;;;;;27.77;11.40;;;11.00;73.30;;;;;;6257721;28;20029;-71
2020/12/21 06:04:00;;;;;;;21.15;10.13;;;11.00;73.30;;;;;;6259370;28;20129;-71
2020/12/21 06:07:03;;;;;;;23.02;10.43;;;11.00;73.30;;;;;;6260366;28;20436;-70
2020/12/21 06:10:08;;;;;;;23.25;11.07;;;10.80;73.20;;;;;;6245300;28;20203;-71
2020/12/21 06:13:12;;;;;;;19.33;9.43;;;10.90;73.50;;;;;;6236545;28;20768;-71
2020/12/21 06:16:16;;;;;;;26.65;11.68;;;10.80;72.90;;;;;;6249909;28;20537;-70
2020/12/21 06:19:24;;;;;;;27.50;11.52;;;10.80;73.50;;;;;;6245777;28;20038;-72
2020/12/21 06:22:26;;;;;;;33.03;11.80;;;10.80;73.50;;;;;;6255194;28;20033;-71
2020/12/21 06:25:27;;;;;;;19.73;9.45;;;10.80;73.50;;;;;;6253393;28;20056;-70
2020/12/21 06:28:28;;;;;;;24.05;11.40;;;10.80;73.40;;;;;;6257384;28;20029;-71
2020/12/21 06:32:03;;;;;;;21.83;9.95;;;10.80;73.30;;;;;;6254600;28;20498;-71
2020/12/21 06:35:20;;;;;;;23.65;10.05;;;10.70;73.60;;;;;;6255133;28;20037;-71
2020/12/21 06:38:21;;;;;;;19.08;8.82;;;10.70;73.40;;;;;;6258203;28;20029;-71
2020/12/21 06:41:26;;;;;;;28.98;9.45;;;10.70;73.40;;;;;;6229990;28;20037;-72
2020/12/21 06:44:29;;;;;;;20.27;9.05;;;10.70;73.20;;;;;;6234542;28;20095;-71
2020/12/21 06:47:29;;;;;;;21.50;9.63;;;10.70;73.10;;;;;;6251670;28;20394;-72
2020/12/21 06:50:30;;;;;;;30.00;10.18;;;10.70;73.20;;;;;;6221908;28;20025;-70
2020/12/21 06:53:31;;;;;;;24.58;10.95;;;10.60;73.10;;;;;;6231699;28;20026;-71
2020/12/21 06:56:33;;;;;;;23.10;8.77;;;10.70;73.50;;;;;;6226505;28;20025;-71
2020/12/21 06:59:33;;;;;;;22.55;9.50;;;10.70;73.40;;;;;;6217251;28;20149;-71
2020/12/21 07:02:34;;;;;;;23.67;10.32;;;10.70;74.10;;;;;;6239412;28;20033;-70
2020/12/21 07:05:35;;;;;;;19.63;8.68;;;10.70;73.10;;;;;;6224168;28;20049;-70
2020/12/21 07:08:36;;;;;;;21.88;10.25;;;10.70;73.00;;;;;;6227021;28;20037;-70
2020/12/21 07:11:38;;;;;;;23.80;10.45;;;10.70;73.10;;;;;;6228425;28;20041;-71
2020/12/21 07:14:40;;;;;;;27.30;9.75;;;10.60;73.00;;;;;;6232302;28;20363;-70
2020/12/21 07:17:41;;;;;;;25.67;10.23;;;10.70;73.10;;;;;;6229477;28;20053;-70
2020/12/21 07:20:42;;;;;;;19.13;9.30;;;10.70;73.00;;;;;;6227314;28;20375;-71
2020/12/21 07:23:44;;;;;;;17.70;8.98;;;10.60;72.60;;;;;;6254931;28;20426;-71
2020/12/21 07:26:47;;;;;;;20.25;9.25;;;10.50;72.70;;;;;;6255699;28;20038;-71
2020/12/21 07:29:47;;;;;;;22.10;8.73;;;10.40;72.80;;;;;;6227309;28;20455;-72
2020/12/21 07:32:48;;;;;;;21.30;8.68;;;10.40;72.90;;;;;;6236473;28;20104;-72
2020/12/21 07:35:59;;;;;;;24.15;9.10;;;10.40;73.00;;;;;;6257376;28;20485;-70
2020/12/21 07:39:16;;;;;;;17.48;8.13;;;10.30;73.10;;;;;;6254556;28;20037;-72
2020/12/21 07:42:19;;;;;;;21.38;9.20;;;10.30;73.20;;;;;;6240584;28;20161;-72
2020/12/21 07:45:23;;;;;;;29.33;9.02;;;10.20;73.20;;;;;;6252950;28;20363;-71
2020/12/21 07:48:24;;;;;;;27.38;9.27;;;10.20;73.40;;;;;;6248702;28;20152;-70
2020/12/21 07:51:25;;;;;;;13.77;7.90;;;10.20;73.30;;;;;;6253466;28;20458;-72
2020/12/21 07:54:26;;;;;;;19.42;8.43;;;10.20;73.20;;;;;;6249591;28;20033;-73
2020/12/21 07:57:30;;;;;;;17.52;8.30;;;10.20;73.20;;;;;;6251888;28;20464;-73
2020/12/21 08:00:31;;;;;;;14.23;7.32;;;10.20;73.30;;;;;;6225828;28;20060;-72
2020/12/21 08:51:00;;;;;;;26.35;9.27;;;10.90;72.80;;;;;;6221127;28;20262;-76
2020/12/21 08:54:03;;;;;;;25.80;9.05;;;10.90;72.60;;;;;;6219431;28;20045;-75
2020/12/21 08:57:04;;;;;;;27.48;11.32;;;10.90;72.40;;;;;;6225061;28;20026;-75
2020/12/21 09:00:05;;;;;;;22.40;9.35;;;10.90;72.50;;;;;;6225219;28;20040;-74
2020/12/21 09:03:06;;;;;;;23.15;10.48;;;10.90;72.50;;;;;;6216692;28;20034;-76
2020/12/21 09:06:07;;;;;;;28.30;11.25;;;11.00;72.60;;;;;;6226321;28;20054;-74
2020/12/21 09:09:09;;;;;;;23.95;10.38;;;11.10;73.40;;;;;;6223341;28;20118;-73
2020/12/21 09:12:10;;;;;;;23.63;9.98;;;11.10;72.50;;;;;;6223149;28;20034;-73
2020/12/21 09:15:11;;;;;;;25.75;11.52;;;11.10;72.30;;;;;;6221861;28;20591;-73
2020/12/21 09:18:13;;;;;;;22.30;10.13;;;11.20;72.40;;;;;;6227365;28;20061;-74
2020/12/21 09:21:21;;;;;;;24.98;10.88;;;11.20;72.30;;;;;;6202829;28;20057;-73
2020/12/21 09:24:22;;;;;;;26.23;11.15;;;11.30;72.10;;;;;;6204465;28;20105;-74
2020/12/21 09:27:23;;;;;;;24.83;11.15;;;11.40;71.90;;;;;;6208769;28;20050;-74
2020/12/21 09:30:24;;;;;;;32.97;11.85;;;11.50;71.90;;;;;;6223519;28;20117;-75
2020/12/21 09:33:25;;;;;;;27.00;12.52;;;11.60;71.80;;;;;;6186557;28;20455;-74
2020/12/21 09:36:27;;;;;;;31.65;12.55;;;11.70;71.80;;;;;;6226858;28;20037;-75
2020/12/21 09:39:28;;;;;;;33.53;12.75;;;11.90;71.60;;;;;;6219863;28;20041;-73
2020/12/21 09:42:29;;;;;;;27.58;11.98;;;12.00;71.10;;;;;;6239028;28;20459;-74
2020/12/21 09:45:29;;;;;;;36.65;12.85;;;12.20;70.90;;;;;;6230460;28;20072;-74
2020/12/21 09:48:32;;;;;;;29.20;13.23;;;12.30;70.60;;;;;;6228869;28;20459;-74
2020/12/21 09:51:32;;;;;;;31.25;13.27;;;12.50;70.30;;;;;;6232146;28;20454;-74
2020/12/21 09:54:34;;;;;;;33.35;12.27;;;12.70;70.00;;;;;;6253349;28;20186;-75
2020/12/21 09:57:35;;;;;;;27.77;12.70;;;12.80;69.50;;;;;;6255365;28;20040;-73
2020/12/21 10:00:36;;;;;;;33.47;15.30;;;12.80;68.80;;;;;;6253943;28;20094;-75
2020/12/21 10:03:41;;;;;;;36.13;15.27;;;12.90;68.50;;;;;;6261823;28;20083;-74
2020/12/21 10:06:51;;;;;;;35.03;15.38;;;12.80;68.20;;;;;;6261312;28;20041;-74
2020/12/21 10:09:53;;;;;;;32.95;13.02;;;12.80;68.20;;;;;;6250327;28;20316;-73
2020/12/21 10:12:53;;;;;;;27.08;12.27;;;12.80;68.10;;;;;;6252946;28;20056;-74
2020/12/21 10:15:54;;;;;;;32.08;14.05;;;12.80;68.00;;;;;;6252985;28;20121;-74
2020/12/21 10:18:55;;;;;;;34.42;14.25;;;12.70;67.80;;;;;;6256565;28;20109;-73
2020/12/21 10:21:56;;;;;;;46.50;18.83;;;12.60;67.60;;;;;;6252395;28;20037;-75
2020/12/21 10:25:00;;;;;;;42.95;19.52;;;12.60;67.70;;;;;;6240027;28;20034;-72
2020/12/21 10:28:01;;;;;;;38.20;17.27;;;12.60;67.70;;;;;;6255334;28;20120;-74
2020/12/21 10:31:02;;;;;;;35.72;15.57;;;12.60;67.80;;;;;;6249775;28;20036;-74
2020/12/21 10:34:03;;;;;;;32.75;13.35;;;12.70;67.60;;;;;;6243487;28;20037;-75
2020/12/21 10:37:04;;;;;;;30.70;12.93;;;12.70;67.70;;;;;;6261628;28;20460;-74
2020/12/21 10:40:06;;;;;;;28.67;12.18;;;12.70;67.50;;;;;;6272966;28;20067;-74
2020/12/21 10:43:06;;;;;;;29.15;11.18;;;12.70;67.50;;;;;;6253821;28;20037;-74
2020/12/21 10:46:07;;;;;;;24.88;11.38;;;12.70;67.40;;;;;;6232879;28;20044;-73
2020/12/21 10:49:09;;;;;;;33.50;15.52;;;12.70;68.30;;;;;;6256835;28;20033;-74
2020/12/21 10:52:11;;;;;;;26.13;12.55;;;12.80;67.60;;;;;;6252531;28;20122;-75
2020/12/21 10:55:12;;;;;;;27.17;11.98;;;12.90;67.40;;;;;;6254374;28;20033;-74
2020/12/21 10:58:13;;;;;;;41.60;16.80;;;12.90;67.20;;;;;;6236984;28;20455;-75
2020/12/21 11:01:16;;;;;;;33.35;14.18;;;13.00;67.10;;;;;;6258205;28;20078;-74
2020/12/21 11:04:17;;;;;;;32.45;15.00;;;13.10;67.10;;;;;;6255901;28;20037;-75
2020/12/21 11:07:18;;;;;;;31.35;14.43;;;13.20;66.70;;;;;;6255525;28;20067;-75
2020/12/21 11:10:19;;;;;;;33.40;11.98;;;13.30;66.70;;;;;;6254938;28;20037;-75
2020/12/21 11:13:20;;;;;;;32.17;13.88;;;13.40;66.50;;;;;;6238839;28;20432;-76
2020/12/21 11:16:22;;;;;;;32.80;12.63;;;13.50;66.10;;;;;;6255563;28;20040;-74
2020/12/21 11:19:26;;;;;;;31.95;14.25;;;13.50;65.90;;;;;;6250983;28;20033;-73
2020/12/21 11:22:27;;;;;;;25.52;11.82;;;13.50;65.80;;;;;;6251059;28;20065;-76
2020/12/21 11:25:28;;;;;;;29.70;11.40;;;13.60;65.80;;;;;;6251927;28;20036;-72
2020/12/21 11:28:29;;;;;;;26.85;9.98;;;13.60;65.90;;;;;;6229054;28;20053;-72
2020/12/21 11:31:33;;;;;;;23.40;10.70;;;13.60;65.90;;;;;;6232334;28;20037;-73
2020/12/21 11:34:34;;;;;;;23.15;11.77;;;13.60;65.80;;;;;;6226640;28;20037;-74
2020/12/21 11:37:36;;;;;;;24.25;11.10;;;13.80;66.10;;;;;;6252603;28;20453;-73
2020/12/21 11:40:37;;;;;;;27.08;12.40;;;13.60;66.10;;;;;;6251609;28;20041;-74
2020/12/21 11:43:38;;;;;;;26.52;12.43;;;13.60;66.20;;;;;;6236258;28;20026;-73
2020/12/21 11:46:40;;;;;;;24.70;10.90;;;13.50;66.20;;;;;;6225017;28;20065;-73
2020/12/21 11:49:41;;;;;;;20.70;10.32;;;13.50;66.20;;;;;;6227401;28;20045;-74
2020/12/21 11:52:42;;;;;;;19.35;9.77;;;13.60;66.20;;;;;;6220988;28;20038;-73
2020/12/21 11:55:43;;;;;;;17.55;9.18;;;13.60;66.00;;;;;;6230360;28;20144;-75
2020/12/21 11:58:44;;;;;;;36.20;17.38;;;13.70;66.00;;;;;;6253541;28;20447;-74
2020/12/21 12:01:46;;;;;;;40.05;17.38;;;13.70;65.80;;;;;;6247589;28;20566;-74
2020/12/21 12:04:47;;;;;;;30.75;13.75;;;13.70;65.40;;;;;;6251220;28;20037;-74
2020/12/21 12:07:48;;;;;;;51.22;23.83;;;13.70;65.20;;;;;;6252860;28;20040;-72
2020/12/21 12:10:49;;;;;;;31.83;15.63;;;13.70;65.20;;;;;;6238512;28;20065;-73
2020/12/21 12:13:50;;;;;;;28.25;14.70;;;13.60;65.00;;;;;;6250612;28;20043;-76
2020/12/21 12:16:55;;;;;;;25.98;13.73;;;13.60;65.20;;;;;;6235884;28;20044;-76
2020/12/21 12:19:55;;;;;;;28.27;12.95;;;13.60;65.50;;;;;;6252446;28;20049;-75
2020/12/21 12:22:56;;;;;;;24.15;11.00;;;13.70;65.50;;;;;;6256617;28;20034;-76
2020/12/21 12:25:57;;;;;;;21.55;11.20;;;13.80;65.50;;;;;;6254485;28;20052;-76
2020/12/21 12:28:58;;;;;;;23.42;11.65;;;13.90;65.50;;;;;;6248182;28;20037;-75
2020/12/21 12:31:59;;;;;;;22.65;11.13;;;14.00;65.30;;;;;;6240917;28;20029;-77
2020/12/21 12:35:00;;;;;;;24.77;11.18;;;14.10;65.10;;;;;;6249836;28;20120;-74
2020/12/21 12:38:01;;;;;;;24.38;11.75;;;14.20;64.80;;;;;;6251946;28;20025;-74
2020/12/21 12:41:02;;;;;;;29.00;11.32;;;14.20;64.70;;;;;;6243206;28;20797;-73
2020/12/21 12:44:07;;;;;;;29.40;12.20;;;14.20;64.90;;;;;;6225289;28;20030;-74
2020/12/21 12:47:08;;;;;;;28.95;11.77;;;14.20;64.80;;;;;;6224777;28;20116;-74
2020/12/21 12:50:09;;;;;;;24.40;10.60;;;14.20;64.60;;;;;;6216734;28;20041;-75
2020/12/21 12:53:10;;;;;;;27.85;10.73;;;14.30;64.80;;;;;;6222840;28;20562;-75
2020/12/21 12:56:11;;;;;;;21.23;9.88;;;14.30;64.80;;;;;;6219030;28;20573;-74
2020/12/21 12:59:12;;;;;;;21.02;9.68;;;14.30;64.90;;;;;;6220816;28;20466;-74
2020/12/21 13:02:13;;;;;;;20.42;10.30;;;14.40;64.60;;;;;;6215249;28;20083;-74
2020/12/21 13:05:14;;;;;;;24.63;11.32;;;14.40;64.20;;;;;;6249347;28;20040;-74
2020/12/21 13:08:14;;;;;;;19.58;9.65;;;14.40;64.10;;;;;;6226189;28;20362;-75
2020/12/21 13:11:15;;;;;;;21.92;10.90;;;14.40;64.20;;;;;;6248606;28;20033;-74
2020/12/21 13:14:17;;;;;;;19.98;9.95;;;14.40;64.10;;;;;;6244164;28;20026;-75
2020/12/21 13:17:18;;;;;;;15.68;8.52;;;14.40;64.20;;;;;;6249952;28;20025;-76
2020/12/21 13:20:19;;;;;;;22.60;9.98;;;14.40;64.10;;;;;;6244732;28;21612;-77
2020/12/21 13:23:19;;;;;;;20.27;8.75;;;14.40;63.80;;;;;;6258126;28;20037;-76
2020/12/21 13:26:21;;;;;;;17.38;9.35;;;14.30;64.00;;;;;;6250952;28;20034;-75
2020/12/21 13:29:23;;;;;;;20.35;10.02;;;14.30;64.00;;;;;;6246465;28;20389;-74
2020/12/21 13:32:24;;;;;;;19.08;10.40;;;14.30;64.00;;;;;;6212393;28;20045;-74
2020/12/21 13:35:25;;;;;;;23.98;11.07;;;14.30;64.00;;;;;;6227728;28;20042;-74
2020/12/21 13:38:26;;;;;;;19.77;9.68;;;14.30;64.20;;;;;;6243294;28;20553;-73
2020/12/21 13:41:27;;;;;;;22.77;10.60;;;14.30;64.20;;;;;;6251633;28;20034;-73
2020/12/21 13:44:29;;;;;;;20.77;10.32;;;14.30;64.00;;;;;;6237559;28;20550;-75
2020/12/21 13:47:29;;;;;;;17.73;8.50;;;14.30;63.80;;;;;;6229853;28;20454;-74
2020/12/21 13:50:56;;;;;;;17.45;7.95;;;14.30;64.00;;;;;;6249455;28;20101;-75
2020/12/21 13:53:56;;;;;;;18.02;9.02;;;14.30;64.00;;;;;;6248864;28;20053;-76
2020/12/21 13:56:58;;;;;;;21.85;8.27;;;14.30;64.00;;;;;;6248575;28;20033;-73
2020/12/21 13:59:59;;;;;;;17.58;8.18;;;14.30;64.00;;;;;;6249781;28;20068;-75
2020/12/21 14:03:00;;;;;;;17.17;8.88;;;14.50;64.10;;;;;;6235197;28;20125;-75
2020/12/21 14:06:01;;;;;;;15.57;7.82;;;14.30;64.10;;;;;;6227587;28;20048;-76
2020/12/21 14:09:04;;;;;;;19.70;7.70;;;14.30;64.00;;;;;;6221658;28;20029;-77
2020/12/21 14:12:05;;;;;;;14.63;7.63;;;14.30;63.90;;;;;;6226469;28;20029;-81
2020/12/21 14:15:06;;;;;;;14.63;8.10;;;14.30;63.80;;;;;;6228110;28;20099;-82
2020/12/21 14:18:08;;;;;;;15.20;7.93;;;14.30;63.80;;;;;;6227880;28;20115;-82
2020/12/21 14:21:09;;;;;;;14.95;8.10;;;14.30;63.80;;;;;;6237552;28;20399;-83
2020/12/21 14:24:10;;;;;;;21.77;9.18;;;14.30;63.60;;;;;;6219798;28;20128;-74
2020/12/21 14:27:11;;;;;;;21.45;9.40;;;14.30;63.50;;;;;;6214182;28;20048;-76
2020/12/21 14:30:13;;;;;;;23.05;10.23;;;14.30;63.70;;;;;;6226393;28;20483;-76
2020/12/21 14:33:14;;;;;;;29.70;10.32;;;14.20;63.80;;;;;;6229248;28;20056;-76
2020/12/21 14:36:22;;;;;;;19.67;9.95;;;14.20;63.90;;;;;;6234184;28;20455;-78
2020/12/21 14:39:22;;;;;;;19.30;10.27;;;14.20;64.20;;;;;;6196226;28;20045;-77
2020/12/21 14:42:23;;;;;;;21.27;10.65;;;14.20;64.30;;;;;;6233328;28;20040;-77
2020/12/21 14:45:24;;;;;;;19.10;8.90;;;14.10;64.40;;;;;;6234880;28;20152;-77
2020/12/21 14:48:25;;;;;;;20.98;9.20;;;14.10;64.60;;;;;;6231374;28;20034;-77
2020/12/21 14:51:26;;;;;;;20.40;7.93;;;14.00;64.70;;;;;;6227571;28;20045;-77
2020/12/21 14:54:28;;;;;;;14.65;7.18;;;14.00;64.80;;;;;;6218139;28;20111;-77
2020/12/21 14:57:32;;;;;;;12.82;6.05;;;14.00;64.80;;;;;;6229660;28;20037;-78
2020/12/21 15:00:33;;;;;;;13.82;6.70;;;14.00;64.80;;;;;;6231400;28;20050;-78
2020/12/21 15:03:35;;;;;;;16.08;8.38;;;14.10;64.80;;;;;;6231564;28;20091;-77
2020/12/21 15:06:36;;;;;;;15.63;8.02;;;14.10;64.60;;;;;;6230163;28;20081;-77
2020/12/21 15:09:37;;;;;;;17.92;8.77;;;14.10;64.60;;;;;;6230453;28;20037;-77
2020/12/21 15:12:39;;;;;;;15.57;7.78;;;14.10;64.60;;;;;;6228689;28;20432;-78
2020/12/21 15:15:41;;;;;;;20.60;9.55;;;14.10;64.50;;;;;;6230023;28;20095;-77
2020/12/21 15:18:42;;;;;;;17.92;9.18;;;14.00;64.40;;;;;;6226537;28;20049;-77
2020/12/21 15:21:45;;;;;;;15.98;8.20;;;14.10;64.50;;;;;;6226555;28;20470;-77
2020/12/21 15:24:47;;;;;;;15.52;7.47;;;14.10;64.60;;;;;;6230254;28;20375;-76
2020/12/21 15:27:48;;;;;;;15.10;8.50;;;14.10;64.60;;;;;;6225773;28;20037;-77
2020/12/21 15:30:49;;;;;;;13.50;7.38;;;14.10;64.80;;;;;;6231805;28;20452;-75
2020/12/21 15:33:50;;;;;;;15.98;7.78;;;14.00;64.90;;;;;;6226912;28;20045;-76
2020/12/21 15:36:51;;;;;;;17.42;8.23;;;14.00;65.00;;;;;;6230039;28;20037;-77
2020/12/21 15:39:52;;;;;;;16.27;7.95;;;14.00;65.00;;;;;;6235708;28;20032;-80
2020/12/21 15:42:54;;;;;;;18.73;9.02;;;14.00;64.90;;;;;;6235184;28;20036;-77
2020/12/21 15:45:55;;;;;;;25.20;8.10;;;13.90;64.90;;;;;;6218851;28;20112;-75
2020/12/21 15:48:56;;;;;;;17.35;8.43;;;14.00;65.10;;;;;;6243221;28;20043;-77
2020/12/21 15:52:01;;;;;;;19.58;9.35;;;13.90;65.10;;;;;;6255040;28;20089;-77
2020/12/21 15:55:03;;;;;;;20.98;8.20;;;13.90;65.10;;;;;;6244586;28;20042;-76
2020/12/21 15:58:04;;;;;;;20.83;8.30;;;13.90;65.10;;;;;;6247919;28;20323;-77
2020/12/21 16:01:05;;;;;;;15.27;8.25;;;13.90;65.20;;;;;;6238504;28;20053;-78
2020/12/21 16:04:06;;;;;;;18.45;8.18;;;13.90;65.40;;;;;;6256231;28;20125;-76
2020/12/21 16:07:07;;;;;;;18.73;8.00;;;13.80;65.50;;;;;;6252784;28;20052;-74
2020/12/21 16:10:11;;;;;;;17.08;8.23;;;13.80;65.50;;;;;;6238006;28;20045;-83
2020/12/21 16:13:13;;;;;;;20.92;8.45;;;13.80;65.70;;;;;;6255353;28;20101;-75
2020/12/21 16:16:14;;;;;;;17.98;9.20;;;13.80;65.60;;;;;;6225144;28;20033;-73
2020/12/21 16:19:40;;;;;;;28.55;10.68;;;13.80;65.70;;;;;;6225820;28;20037;-76